sensor_id;sensor_type;location;lat;lon;timestamp;temperature;humidity
39095;DHT22;24840;47.508;19.376;2023-06-22T00:00:55;20.80;99.90
39095;DHT22;24840;47.508;19.376;2023-06-22T00:03:22;20.90;99.90
39095;DHT22;24840;47.508;19.376;2023-06-22T00:05:48;20.80;99.90
39095;DHT22;24840;47.508;19.376;2023-06-22T00:08:14;20.90;99.90
39095;DHT22;24840;47.508;19.376;2023-06-22T00:10:41;20.80;99.90
39095;DHT22;24840;47.508;19.376;2023-06-22T00:13:07;20.70;99.90
39095;DHT22;24840;47.508;19.376;2023-06-22T00:15:34;20.70;99.90
39095;DHT22;24840;47.508;19.376;2023-06-22T00:18:00;20.70;99.90
39095;DHT22;24840;47.508;19.376;2023-06-22T00:20:26;20.70;99.90
39095;DHT22;24840;47.508;19.376;2023-06-22T00:22:54;20.60;99.90
39095;DHT22;24840;47.508;19.376;2023-06-22T00:25:20;20.60;99.90
39095;DHT22;24840;47.508;19.376;2023-06-22T00:27:45;20.70;99.90
39095;DHT22;24840;47.508;19.376;2023-06-22T00:30:11;20.60;99.90
39095;DHT22;24840;47.508;19.376;2023-06-22T00:32:37;20.50;99.90
39095;DHT22;24840;47.508;19.376;2023-06-22T00:35:03;20.50;99.90
39095;DHT22;24840;47.508;19.376;2023-06-22T00:37:29;20.40;99.90
39095;DHT22;24840;47.508;19.376;2023-06-22T00:39:55;20.30;99.90
39095;DHT22;24840;47.508;19.376;2023-06-22T00:42:22;20.40;99.90
39095;DHT22;24840;47.508;19.376;2023-06-22T00:44:47;20.40;99.90
39095;DHT22;24840;47.508;19.376;2023-06-22T00:47:15;20.50;99.90
39095;DHT22;24840;47.508;19.376;2023-06-22T00:49:41;20.40;99.90
39095;DHT22;24840;47.508;19.376;2023-06-22T00:52:08;20.30;99.90
39095;DHT22;24840;47.508;19.376;2023-06-22T00:54:37;20.30;99.90
39095;DHT22;24840;47.508;19.376;2023-06-22T00:57:04;20.30;99.90
39095;DHT22;24840;47.508;19.376;2023-06-22T00:59:30;20.20;99.90
39095;DHT22;24840;47.508;19.376;2023-06-22T01:01:58;20.20;99.90
39095;DHT22;24840;47.508;19.376;2023-06-22T01:04:34;20.20;99.90
39095;DHT22;24840;47.508;19.376;2023-06-22T01:07:14;20.00;99.90
39095;DHT22;24840;47.508;19.376;2023-06-22T01:10:16;20.00;99.90
39095;DHT22;24840;47.508;19.376;2023-06-22T01:12:48;20.00;99.90
39095;DHT22;24840;47.508;19.376;2023-06-22T01:15:23;20.00;99.90
39095;DHT22;24840;47.508;19.376;2023-06-22T01:17:52;20.00;99.90
39095;DHT22;24840;47.508;19.376;2023-06-22T01:20:20;19.90;99.90
39095;DHT22;24840;47.508;19.376;2023-06-22T01:23:17;19.80;99.90
39095;DHT22;24840;47.508;19.376;2023-06-22T01:28:54;19.80;99.90
39095;DHT22;24840;47.508;19.376;2023-06-22T01:31:23;19.80;99.90
39095;DHT22;24840;47.508;19.376;2023-06-22T01:33:59;19.80;99.90
39095;DHT22;24840;47.508;19.376;2023-06-22T01:36:26;19.80;99.90
39095;DHT22;24840;47.508;19.376;2023-06-22T01:38:53;19.70;99.90
39095;DHT22;24840;47.508;19.376;2023-06-22T01:41:20;19.70;99.90
39095;DHT22;24840;47.508;19.376;2023-06-22T01:43:49;19.60;99.90
39095;DHT22;24840;47.508;19.376;2023-06-22T01:46:16;19.70;99.90
39095;DHT22;24840;47.508;19.376;2023-06-22T01:48:45;19.70;99.90
39095;DHT22;24840;47.508;19.376;2023-06-22T01:51:12;19.70;99.90
39095;DHT22;24840;47.508;19.376;2023-06-22T01:53:37;19.60;99.90
39095;DHT22;24840;47.508;19.376;2023-06-22T01:56:04;19.70;99.90
39095;DHT22;24840;47.508;19.376;2023-06-22T01:58:30;19.60;99.90
39095;DHT22;24840;47.508;19.376;2023-06-22T02:01:19;19.60;99.90
39095;DHT22;24840;47.508;19.376;2023-06-22T02:03:53;19.50;99.90
39095;DHT22;24840;47.508;19.376;2023-06-22T02:06:26;19.50;99.90
39095;DHT22;24840;47.508;19.376;2023-06-22T02:08:59;19.50;99.90
39095;DHT22;24840;47.508;19.376;2023-06-22T02:11:26;19.50;99.90
39095;DHT22;24840;47.508;19.376;2023-06-22T02:13:53;19.40;99.90
39095;DHT22;24840;47.508;19.376;2023-06-22T02:16:20;19.40;99.90
39095;DHT22;24840;47.508;19.376;2023-06-22T02:18:50;19.40;99.90
39095;DHT22;24840;47.508;19.376;2023-06-22T02:21:17;19.20;99.90
39095;DHT22;24840;47.508;19.376;2023-06-22T02:23:42;19.20;99.90
39095;DHT22;24840;47.508;19.376;2023-06-22T02:26:08;19.20;99.90
39095;DHT22;24840;47.508;19.376;2023-06-22T02:28:34;19.30;99.90
39095;DHT22;24840;47.508;19.376;2023-06-22T02:31:00;19.30;99.90
39095;DHT22;24840;47.508;19.376;2023-06-22T02:33:25;19.30;99.90
39095;DHT22;24840;47.508;19.376;2023-06-22T02:35:51;19.30;99.90
39095;DHT22;24840;47.508;19.376;2023-06-22T02:38:17;19.30;99.90
39095;DHT22;24840;47.508;19.376;2023-06-22T02:40:43;19.20;99.90
39095;DHT22;24840;47.508;19.376;2023-06-22T02:43:08;19.20;99.90
39095;DHT22;24840;47.508;19.376;2023-06-22T02:45:34;19.30;99.90
39095;DHT22;24840;47.508;19.376;2023-06-22T02:48:00;19.30;99.90
39095;DHT22;24840;47.508;19.376;2023-06-22T02:50:25;19.30;99.90
39095;DHT22;24840;47.508;19.376;2023-06-22T02:52:51;19.30;99.90
39095;DHT22;24840;47.508;19.376;2023-06-22T02:55:17;19.20;99.90
39095;DHT22;24840;47.508;19.376;2023-06-22T02:57:43;19.20;99.90
39095;DHT22;24840;47.508;19.376;2023-06-22T03:00:10;19.10;99.90
39095;DHT22;24840;47.508;19.376;2023-06-22T03:02:49;19.20;99.90
39095;DHT22;24840;47.508;19.376;2023-06-22T03:05:15;19.10;99.90
39095;DHT22;24840;47.508;19.376;2023-06-22T03:07:49;19.10;99.90
39095;DHT22;24840;47.508;19.376;2023-06-22T03:10:15;19.20;99.90
39095;DHT22;24840;47.508;19.376;2023-06-22T03:12:42;19.10;99.90
39095;DHT22;24840;47.508;19.376;2023-06-22T03:15:12;19.10;99.90
39095;DHT22;24840;47.508;19.376;2023-06-22T03:17:39;19.00;99.90
39095;DHT22;24840;47.508;19.376;2023-06-22T03:20:06;19.00;99.90
39095;DHT22;24840;47.508;19.376;2023-06-22T03:22:38;19.00;99.90
39095;DHT22;24840;47.508;19.376;2023-06-22T03:25:04;19.00;99.90
39095;DHT22;24840;47.508;19.376;2023-06-22T03:27:41;19.00;99.90
39095;DHT22;24840;47.508;19.376;2023-06-22T03:30:10;19.10;99.90
39095;DHT22;24840;47.508;19.376;2023-06-22T03:32:36;19.10;99.90
39095;DHT22;24840;47.508;19.376;2023-06-22T03:35:02;19.10;99.90
39095;DHT22;24840;47.508;19.376;2023-06-22T03:37:29;19.10;99.90
39095;DHT22;24840;47.508;19.376;2023-06-22T03:39:55;19.10;99.90
39095;DHT22;24840;47.508;19.376;2023-06-22T03:42:20;19.20;99.90
39095;DHT22;24840;47.508;19.376;2023-06-22T03:44:46;19.30;99.90
39095;DHT22;24840;47.508;19.376;2023-06-22T03:47:12;19.30;99.90
39095;DHT22;24840;47.508;19.376;2023-06-22T03:49:38;19.30;99.90
39095;DHT22;24840;47.508;19.376;2023-06-22T03:52:04;19.30;99.90
39095;DHT22;24840;47.508;19.376;2023-06-22T03:54:30;19.30;99.90
39095;DHT22;24840;47.508;19.376;2023-06-22T03:56:57;19.30;99.90
39095;DHT22;24840;47.508;19.376;2023-06-22T03:59:23;19.40;99.90
39095;DHT22;24840;47.508;19.376;2023-06-22T04:01:48;19.40;99.90
39095;DHT22;24840;47.508;19.376;2023-06-22T04:04:14;19.50;99.90
39095;DHT22;24840;47.508;19.376;2023-06-22T04:06:40;19.40;99.90
39095;DHT22;24840;47.508;19.376;2023-06-22T04:09:06;19.40;99.90
39095;DHT22;24840;47.508;19.376;2023-06-22T04:11:32;19.40;99.90
39095;DHT22;24840;47.508;19.376;2023-06-22T04:13:57;19.50;99.90
39095;DHT22;24840;47.508;19.376;2023-06-22T04:16:23;19.50;99.90
39095;DHT22;24840;47.508;19.376;2023-06-22T04:18:49;19.50;99.90
39095;DHT22;24840;47.508;19.376;2023-06-22T04:21:15;19.50;99.90
39095;DHT22;24840;47.508;19.376;2023-06-22T04:23:40;19.60;99.90
39095;DHT22;24840;47.508;19.376;2023-06-22T04:26:06;19.60;99.90
39095;DHT22;24840;47.508;19.376;2023-06-22T04:28:32;19.70;99.90
39095;DHT22;24840;47.508;19.376;2023-06-22T04:31:04;19.80;99.90
39095;DHT22;24840;47.508;19.376;2023-06-22T04:33:30;19.90;99.90
39095;DHT22;24840;47.508;19.376;2023-06-22T04:35:56;20.00;99.90
39095;DHT22;24840;47.508;19.376;2023-06-22T04:38:23;20.10;99.90
39095;DHT22;24840;47.508;19.376;2023-06-22T04:40:49;20.10;99.90
39095;DHT22;24840;47.508;19.376;2023-06-22T04:43:15;20.00;99.90
39095;DHT22;24840;47.508;19.376;2023-06-22T04:45:41;20.10;99.90
39095;DHT22;24840;47.508;19.376;2023-06-22T04:48:07;20.20;99.90
39095;DHT22;24840;47.508;19.376;2023-06-22T04:50:37;20.30;99.90
39095;DHT22;24840;47.508;19.376;2023-06-22T04:53:04;20.40;99.90
39095;DHT22;24840;47.508;19.376;2023-06-22T04:55:32;20.40;99.90
39095;DHT22;24840;47.508;19.376;2023-06-22T04:57:57;20.50;99.90
39095;DHT22;24840;47.508;19.376;2023-06-22T05:00:30;20.50;99.90
39095;DHT22;24840;47.508;19.376;2023-06-22T05:02:56;20.50;99.90
39095;DHT22;24840;47.508;19.376;2023-06-22T05:05:23;20.60;99.90
39095;DHT22;24840;47.508;19.376;2023-06-22T05:07:51;20.70;99.90
39095;DHT22;24840;47.508;19.376;2023-06-22T05:10:19;20.90;99.90
39095;DHT22;24840;47.508;19.376;2023-06-22T05:12:46;21.10;99.90
39095;DHT22;24840;47.508;19.376;2023-06-22T05:15:12;21.20;99.90
39095;DHT22;24840;47.508;19.376;2023-06-22T05:17:38;21.30;99.90
39095;DHT22;24840;47.508;19.376;2023-06-22T05:20:11;21.40;99.90
39095;DHT22;24840;47.508;19.376;2023-06-22T05:22:38;21.40;99.90
39095;DHT22;24840;47.508;19.376;2023-06-22T05:25:08;21.40;99.90
39095;DHT22;24840;47.508;19.376;2023-06-22T05:27:34;21.50;99.90
39095;DHT22;24840;47.508;19.376;2023-06-22T05:29:59;21.60;99.90
39095;DHT22;24840;47.508;19.376;2023-06-22T05:32:25;21.80;99.90
39095;DHT22;24840;47.508;19.376;2023-06-22T05:34:51;21.90;99.90
39095;DHT22;24840;47.508;19.376;2023-06-22T05:37:16;21.90;99.90
39095;DHT22;24840;47.508;19.376;2023-06-22T05:39:42;22.00;99.90
39095;DHT22;24840;47.508;19.376;2023-06-22T05:42:08;22.10;99.90
39095;DHT22;24840;47.508;19.376;2023-06-22T05:44:34;22.20;99.90
39095;DHT22;24840;47.508;19.376;2023-06-22T05:47:00;22.40;99.90
39095;DHT22;24840;47.508;19.376;2023-06-22T05:49:26;22.50;99.90
39095;DHT22;24840;47.508;19.376;2023-06-22T05:51:58;22.70;99.90
39095;DHT22;24840;47.508;19.376;2023-06-22T05:54:25;23.00;99.90
39095;DHT22;24840;47.508;19.376;2023-06-22T05:56:51;23.00;99.90
39095;DHT22;24840;47.508;19.376;2023-06-22T05:59:17;23.10;99.90
39095;DHT22;24840;47.508;19.376;2023-06-22T06:01:42;23.30;99.90
39095;DHT22;24840;47.508;19.376;2023-06-22T06:04:08;23.40;99.90
39095;DHT22;24840;47.508;19.376;2023-06-22T06:06:34;23.40;99.90
39095;DHT22;24840;47.508;19.376;2023-06-22T06:09:00;23.60;99.90
39095;DHT22;24840;47.508;19.376;2023-06-22T06:11:26;23.70;99.90
39095;DHT22;24840;47.508;19.376;2023-06-22T06:13:52;23.80;99.90
39095;DHT22;24840;47.508;19.376;2023-06-22T06:16:18;23.80;99.90
39095;DHT22;24840;47.508;19.376;2023-06-22T06:18:43;23.80;99.90
39095;DHT22;24840;47.508;19.376;2023-06-22T06:21:09;23.80;99.90
39095;DHT22;24840;47.508;19.376;2023-06-22T06:23:35;23.80;99.90
39095;DHT22;24840;47.508;19.376;2023-06-22T06:26:00;24.00;99.90
39095;DHT22;24840;47.508;19.376;2023-06-22T06:28:27;24.30;99.90
39095;DHT22;24840;47.508;19.376;2023-06-22T06:30:53;24.40;99.90
39095;DHT22;24840;47.508;19.376;2023-06-22T06:33:19;24.40;99.90
39095;DHT22;24840;47.508;19.376;2023-06-22T06:35:46;24.30;99.90
39095;DHT22;24840;47.508;19.376;2023-06-22T06:38:12;24.50;99.90
39095;DHT22;24840;47.508;19.376;2023-06-22T06:40:37;24.90;99.90
39095;DHT22;24840;47.508;19.376;2023-06-22T06:43:03;25.20;99.90
39095;DHT22;24840;47.508;19.376;2023-06-22T06:45:29;25.30;99.90
39095;DHT22;24840;47.508;19.376;2023-06-22T06:47:56;25.30;99.90
39095;DHT22;24840;47.508;19.376;2023-06-22T06:50:22;25.50;99.90
39095;DHT22;24840;47.508;19.376;2023-06-22T06:52:48;25.70;99.90
39095;DHT22;24840;47.508;19.376;2023-06-22T06:55:15;26.00;99.90
39095;DHT22;24840;47.508;19.376;2023-06-22T06:57:42;25.90;99.90
39095;DHT22;24840;47.508;19.376;2023-06-22T07:00:10;26.10;99.90
39095;DHT22;24840;47.508;19.376;2023-06-22T07:02:41;26.10;99.90
39095;DHT22;24840;47.508;19.376;2023-06-22T07:05:08;25.90;99.90
39095;DHT22;24840;47.508;19.376;2023-06-22T07:07:34;26.40;99.90
39095;DHT22;24840;47.508;19.376;2023-06-22T07:10:00;26.40;99.90
39095;DHT22;24840;47.508;19.376;2023-06-22T07:12:26;26.80;99.90
39095;DHT22;24840;47.508;19.376;2023-06-22T07:14:52;27.00;99.90
39095;DHT22;24840;47.508;19.376;2023-06-22T07:17:18;26.70;99.20
39095;DHT22;24840;47.508;19.376;2023-06-22T07:19:46;26.80;99.90
39095;DHT22;24840;47.508;19.376;2023-06-22T07:22:11;26.80;99.90
39095;DHT22;24840;47.508;19.376;2023-06-22T07:24:37;26.70;99.90
39095;DHT22;24840;47.508;19.376;2023-06-22T07:27:03;26.80;99.90
39095;DHT22;24840;47.508;19.376;2023-06-22T07:29:30;27.30;99.90
39095;DHT22;24840;47.508;19.376;2023-06-22T07:31:57;27.60;99.70
39095;DHT22;24840;47.508;19.376;2023-06-22T07:34:23;27.50;97.00
39095;DHT22;24840;47.508;19.376;2023-06-22T07:36:49;27.60;96.60
39095;DHT22;24840;47.508;19.376;2023-06-22T07:39:14;27.80;96.40
39095;DHT22;24840;47.508;19.376;2023-06-22T07:41:40;27.70;96.00
39095;DHT22;24840;47.508;19.376;2023-06-22T07:44:06;27.90;96.90
39095;DHT22;24840;47.508;19.376;2023-06-22T07:46:33;28.00;97.00
39095;DHT22;24840;47.508;19.376;2023-06-22T07:48:58;28.20;97.50
39095;DHT22;24840;47.508;19.376;2023-06-22T07:51:26;28.40;97.40
39095;DHT22;24840;47.508;19.376;2023-06-22T07:53:52;28.30;95.70
39095;DHT22;24840;47.508;19.376;2023-06-22T07:56:18;28.40;95.00
39095;DHT22;24840;47.508;19.376;2023-06-22T07:58:46;28.60;96.90
39095;DHT22;24840;47.508;19.376;2023-06-22T08:01:12;28.90;97.20
39095;DHT22;24840;47.508;19.376;2023-06-22T08:03:38;28.90;94.70
39095;DHT22;24840;47.508;19.376;2023-06-22T08:06:05;29.00;95.50
39095;DHT22;24840;47.508;19.376;2023-06-22T08:08:31;29.30;96.40
39095;DHT22;24840;47.508;19.376;2023-06-22T08:10:57;29.80;97.20
39095;DHT22;24840;47.508;19.376;2023-06-22T08:13:23;29.90;95.00
39095;DHT22;24840;47.508;19.376;2023-06-22T08:15:48;29.90;95.30
39095;DHT22;24840;47.508;19.376;2023-06-22T08:18:15;30.10;92.00
39095;DHT22;24840;47.508;19.376;2023-06-22T08:20:42;30.20;95.40
39095;DHT22;24840;47.508;19.376;2023-06-22T08:23:07;30.10;92.70
39095;DHT22;24840;47.508;19.376;2023-06-22T08:25:34;29.90;90.40
39095;DHT22;24840;47.508;19.376;2023-06-22T08:28:01;30.30;93.70
39095;DHT22;24840;47.508;19.376;2023-06-22T08:30:27;30.60;91.80
39095;DHT22;24840;47.508;19.376;2023-06-22T08:32:53;30.50;92.20
39095;DHT22;24840;47.508;19.376;2023-06-22T08:35:20;30.70;91.00
39095;DHT22;24840;47.508;19.376;2023-06-22T08:37:46;30.50;94.10
39095;DHT22;24840;47.508;19.376;2023-06-22T08:40:17;31.00;92.80
39095;DHT22;24840;47.508;19.376;2023-06-22T08:42:45;31.00;93.60
39095;DHT22;24840;47.508;19.376;2023-06-22T08:45:11;30.80;87.70
39095;DHT22;24840;47.508;19.376;2023-06-22T08:47:38;31.00;90.80
39095;DHT22;24840;47.508;19.376;2023-06-22T08:50:05;31.00;90.10
39095;DHT22;24840;47.508;19.376;2023-06-22T08:52:32;31.50;91.00
39095;DHT22;24840;47.508;19.376;2023-06-22T08:54:57;31.70;90.40
39095;DHT22;24840;47.508;19.376;2023-06-22T08:57:26;31.50;86.40
39095;DHT22;24840;47.508;19.376;2023-06-22T08:59:52;31.50;86.30
39095;DHT22;24840;47.508;19.376;2023-06-22T09:02:18;31.90;91.20
39095;DHT22;24840;47.508;19.376;2023-06-22T09:04:46;32.10;85.10
39095;DHT22;24840;47.508;19.376;2023-06-22T09:07:12;31.80;82.00
39095;DHT22;24840;47.508;19.376;2023-06-22T09:09:37;31.50;82.70
39095;DHT22;24840;47.508;19.376;2023-06-22T09:12:03;31.80;88.70
39095;DHT22;24840;47.508;19.376;2023-06-22T09:14:29;31.40;84.00
39095;DHT22;24840;47.508;19.376;2023-06-22T09:16:55;31.70;78.30
39095;DHT22;24840;47.508;19.376;2023-06-22T09:19:21;31.30;81.10
39095;DHT22;24840;47.508;19.376;2023-06-22T09:21:47;31.30;81.10
39095;DHT22;24840;47.508;19.376;2023-06-22T09:24:12;31.50;84.70
39095;DHT22;24840;47.508;19.376;2023-06-22T09:26:39;31.60;80.00
39095;DHT22;24840;47.508;19.376;2023-06-22T09:29:05;32.00;83.10
39095;DHT22;24840;47.508;19.376;2023-06-22T09:31:31;31.90;87.20
39095;DHT22;24840;47.508;19.376;2023-06-22T09:33:57;32.10;82.30
39095;DHT22;24840;47.508;19.376;2023-06-22T09:36:24;32.20;77.60
39095;DHT22;24840;47.508;19.376;2023-06-22T09:38:49;32.50;82.70
39095;DHT22;24840;47.508;19.376;2023-06-22T09:41:21;32.90;83.30
39095;DHT22;24840;47.508;19.376;2023-06-22T09:43:47;32.90;76.80
39095;DHT22;24840;47.508;19.376;2023-06-22T09:46:15;33.60;85.90
39095;DHT22;24840;47.508;19.376;2023-06-22T09:48:41;33.90;80.70
39095;DHT22;24840;47.508;19.376;2023-06-22T09:51:07;33.10;76.00
39095;DHT22;24840;47.508;19.376;2023-06-22T09:53:33;33.30;82.10
39095;DHT22;24840;47.508;19.376;2023-06-22T09:56:00;33.20;76.60
39095;DHT22;24840;47.508;19.376;2023-06-22T09:58:27;33.40;81.90
39095;DHT22;24840;47.508;19.376;2023-06-22T10:00:53;33.70;76.40
39095;DHT22;24840;47.508;19.376;2023-06-22T10:03:20;33.40;83.00
39095;DHT22;24840;47.508;19.376;2023-06-22T10:05:46;33.60;79.70
39095;DHT22;24840;47.508;19.376;2023-06-22T10:08:11;33.70;78.40
39095;DHT22;24840;47.508;19.376;2023-06-22T10:10:37;33.70;82.00
39095;DHT22;24840;47.508;19.376;2023-06-22T10:13:10;33.70;80.10
39095;DHT22;24840;47.508;19.376;2023-06-22T10:15:39;33.90;78.70
39095;DHT22;24840;47.508;19.376;2023-06-22T10:18:04;33.60;76.90
39095;DHT22;24840;47.508;19.376;2023-06-22T10:20:30;33.40;75.50
39095;DHT22;24840;47.508;19.376;2023-06-22T10:22:56;34.00;78.50
39095;DHT22;24840;47.508;19.376;2023-06-22T10:25:22;33.30;79.40
39095;DHT22;24840;47.508;19.376;2023-06-22T10:27:48;33.40;78.20
39095;DHT22;24840;47.508;19.376;2023-06-22T10:30:14;33.90;80.90
39095;DHT22;24840;47.508;19.376;2023-06-22T10:32:41;34.10;77.50
39095;DHT22;24840;47.508;19.376;2023-06-22T10:35:09;34.20;83.90
39095;DHT22;24840;47.508;19.376;2023-06-22T10:37:36;34.50;78.90
39095;DHT22;24840;47.508;19.376;2023-06-22T10:40:02;35.10;81.10
39095;DHT22;24840;47.508;19.376;2023-06-22T10:42:29;35.60;74.80
39095;DHT22;24840;47.508;19.376;2023-06-22T10:44:55;35.10;75.00
39095;DHT22;24840;47.508;19.376;2023-06-22T10:47:20;35.00;75.70
39095;DHT22;24840;47.508;19.376;2023-06-22T10:49:46;35.00;79.20
39095;DHT22;24840;47.508;19.376;2023-06-22T10:52:12;35.00;76.40
39095;DHT22;24840;47.508;19.376;2023-06-22T10:54:38;35.90;78.60
39095;DHT22;24840;47.508;19.376;2023-06-22T10:57:04;35.70;72.70
39095;DHT22;24840;47.508;19.376;2023-06-22T10:59:29;35.50;71.30
39095;DHT22;24840;47.508;19.376;2023-06-22T11:01:56;35.10;76.20
39095;DHT22;24840;47.508;19.376;2023-06-22T11:04:22;35.40;78.00
39095;DHT22;24840;47.508;19.376;2023-06-22T11:06:48;35.30;76.60
39095;DHT22;24840;47.508;19.376;2023-06-22T11:09:15;35.30;71.80
39095;DHT22;24840;47.508;19.376;2023-06-22T11:11:51;34.50;72.10
39095;DHT22;24840;47.508;19.376;2023-06-22T11:14:19;35.20;81.30
39095;DHT22;24840;47.508;19.376;2023-06-22T11:16:44;35.90;74.80
39095;DHT22;24840;47.508;19.376;2023-06-22T11:19:12;36.60;74.70
39095;DHT22;24840;47.508;19.376;2023-06-22T11:21:37;36.20;72.80
39095;DHT22;24840;47.508;19.376;2023-06-22T11:24:04;36.40;76.30
39095;DHT22;24840;47.508;19.376;2023-06-22T11:26:33;36.50;73.60
39095;DHT22;24840;47.508;19.376;2023-06-22T11:28:58;36.50;70.40
39095;DHT22;24840;47.508;19.376;2023-06-22T11:31:24;36.30;75.70
39095;DHT22;24840;47.508;19.376;2023-06-22T11:33:50;35.50;71.50
39095;DHT22;24840;47.508;19.376;2023-06-22T11:36:16;36.20;76.70
39095;DHT22;24840;47.508;19.376;2023-06-22T11:38:42;36.50;77.20
39095;DHT22;24840;47.508;19.376;2023-06-22T11:41:09;36.30;74.30
39095;DHT22;24840;47.508;19.376;2023-06-22T11:43:35;36.50;71.40
39095;DHT22;24840;47.508;19.376;2023-06-22T11:46:05;35.90;65.90
39095;DHT22;24840;47.508;19.376;2023-06-22T11:48:30;35.50;72.90
39095;DHT22;24840;47.508;19.376;2023-06-22T11:50:56;36.30;77.00
39095;DHT22;24840;47.508;19.376;2023-06-22T11:53:24;36.10;74.00
39095;DHT22;24840;47.508;19.376;2023-06-22T11:55:50;36.40;67.20
39095;DHT22;24840;47.508;19.376;2023-06-22T11:58:16;36.70;75.10
39095;DHT22;24840;47.508;19.376;2023-06-22T12:00:42;37.20;75.80
39095;DHT22;24840;47.508;19.376;2023-06-22T12:03:08;36.70;75.50
39095;DHT22;24840;47.508;19.376;2023-06-22T12:05:35;37.30;70.40
39095;DHT22;24840;47.508;19.376;2023-06-22T12:08:00;37.20;74.50
39095;DHT22;24840;47.508;19.376;2023-06-22T12:10:26;37.30;71.70
39095;DHT22;24840;47.508;19.376;2023-06-22T12:12:54;37.20;71.30
39095;DHT22;24840;47.508;19.376;2023-06-22T12:15:20;37.00;67.00
39095;DHT22;24840;47.508;19.376;2023-06-22T12:17:45;36.40;72.80
39095;DHT22;24840;47.508;19.376;2023-06-22T12:20:13;36.70;67.70
39095;DHT22;24840;47.508;19.376;2023-06-22T12:22:40;36.50;67.60
39095;DHT22;24840;47.508;19.376;2023-06-22T12:25:07;36.60;72.10
39095;DHT22;24840;47.508;19.376;2023-06-22T12:27:33;37.20;70.60
39095;DHT22;24840;47.508;19.376;2023-06-22T12:29:58;36.70;67.50
39095;DHT22;24840;47.508;19.376;2023-06-22T12:32:24;36.80;75.10
39095;DHT22;24840;47.508;19.376;2023-06-22T12:34:51;36.80;69.00
39095;DHT22;24840;47.508;19.376;2023-06-22T12:37:17;36.40;67.80
39095;DHT22;24840;47.508;19.376;2023-06-22T12:39:42;36.80;68.30
39095;DHT22;24840;47.508;19.376;2023-06-22T12:42:08;37.00;67.50
39095;DHT22;24840;47.508;19.376;2023-06-22T12:44:38;36.40;67.50
39095;DHT22;24840;47.508;19.376;2023-06-22T12:47:05;36.20;66.60
39095;DHT22;24840;47.508;19.376;2023-06-22T12:49:31;35.90;73.00
39095;DHT22;24840;47.508;19.376;2023-06-22T12:51:57;36.80;74.60
39095;DHT22;24840;47.508;19.376;2023-06-22T12:54:22;37.70;72.00
39095;DHT22;24840;47.508;19.376;2023-06-22T12:56:50;37.20;67.50
39095;DHT22;24840;47.508;19.376;2023-06-22T12:59:16;37.00;73.30
39095;DHT22;24840;47.508;19.376;2023-06-22T13:01:50;36.40;69.20
39095;DHT22;24840;47.508;19.376;2023-06-22T13:04:16;35.60;71.90
39095;DHT22;24840;47.508;19.376;2023-06-22T13:06:47;35.80;69.90
39095;DHT22;24840;47.508;19.376;2023-06-22T13:09:14;36.40;67.90
39095;DHT22;24840;47.508;19.376;2023-06-22T13:11:40;36.70;68.90
39095;DHT22;24840;47.508;19.376;2023-06-22T13:14:06;36.80;68.90
39095;DHT22;24840;47.508;19.376;2023-06-22T13:16:32;37.10;72.00
39095;DHT22;24840;47.508;19.376;2023-06-22T13:18:58;37.40;67.00
39095;DHT22;24840;47.508;19.376;2023-06-22T13:21:24;37.30;69.50
39095;DHT22;24840;47.508;19.376;2023-06-22T13:23:50;36.90;70.90
39095;DHT22;24840;47.508;19.376;2023-06-22T13:26:15;36.60;67.60
39095;DHT22;24840;47.508;19.376;2023-06-22T13:28:41;36.70;70.80
39095;DHT22;24840;47.508;19.376;2023-06-22T13:31:07;36.50;67.10
39095;DHT22;24840;47.508;19.376;2023-06-22T13:33:32;36.90;66.40
39095;DHT22;24840;47.508;19.376;2023-06-22T13:35:58;36.80;68.10
39095;DHT22;24840;47.508;19.376;2023-06-22T13:38:24;37.00;68.20
39095;DHT22;24840;47.508;19.376;2023-06-22T13:40:50;37.50;71.70
39095;DHT22;24840;47.508;19.376;2023-06-22T13:43:16;37.50;70.50
39095;DHT22;24840;47.508;19.376;2023-06-22T13:45:42;37.30;69.10
39095;DHT22;24840;47.508;19.376;2023-06-22T13:48:09;37.90;69.80
39095;DHT22;24840;47.508;19.376;2023-06-22T13:50:35;37.50;69.30
39095;DHT22;24840;47.508;19.376;2023-06-22T13:53:01;36.30;66.90
39095;DHT22;24840;47.508;19.376;2023-06-22T13:55:26;36.20;67.60
39095;DHT22;24840;47.508;19.376;2023-06-22T13:57:52;36.70;69.50
39095;DHT22;24840;47.508;19.376;2023-06-22T14:00:19;36.80;66.20
39095;DHT22;24840;47.508;19.376;2023-06-22T14:02:47;36.10;68.90
39095;DHT22;24840;47.508;19.376;2023-06-22T14:05:13;35.80;68.70
39095;DHT22;24840;47.508;19.376;2023-06-22T14:07:39;36.10;67.90
39095;DHT22;24840;47.508;19.376;2023-06-22T14:10:05;36.60;69.30
39095;DHT22;24840;47.508;19.376;2023-06-22T14:12:30;36.80;70.10
39095;DHT22;24840;47.508;19.376;2023-06-22T14:14:56;37.10;66.60
39095;DHT22;24840;47.508;19.376;2023-06-22T14:17:23;36.80;70.50
39095;DHT22;24840;47.508;19.376;2023-06-22T14:19:49;36.20;67.60
39095;DHT22;24840;47.508;19.376;2023-06-22T14:22:17;36.20;68.40
39095;DHT22;24840;47.508;19.376;2023-06-22T14:24:43;36.20;68.70
39095;DHT22;24840;47.508;19.376;2023-06-22T14:27:08;36.30;71.00
39095;DHT22;24840;47.508;19.376;2023-06-22T14:29:35;36.70;72.70
39095;DHT22;24840;47.508;19.376;2023-06-22T14:32:01;37.10;69.20
39095;DHT22;24840;47.508;19.376;2023-06-22T14:34:26;36.60;67.20
39095;DHT22;24840;47.508;19.376;2023-06-22T14:36:52;36.20;73.40
39095;DHT22;24840;47.508;19.376;2023-06-22T14:39:18;36.10;73.70
39095;DHT22;24840;47.508;19.376;2023-06-22T14:41:43;35.80;73.00
39095;DHT22;24840;47.508;19.376;2023-06-22T14:44:09;35.80;73.00
39095;DHT22;24840;47.508;19.376;2023-06-22T14:46:35;36.00;70.60
39095;DHT22;24840;47.508;19.376;2023-06-22T14:49:01;36.00;69.10
39095;DHT22;24840;47.508;19.376;2023-06-22T14:51:26;35.50;67.10
39095;DHT22;24840;47.508;19.376;2023-06-22T14:53:52;35.70;70.30
39095;DHT22;24840;47.508;19.376;2023-06-22T14:56:18;35.80;71.30
39095;DHT22;24840;47.508;19.376;2023-06-22T14:58:44;35.60;72.50
39095;DHT22;24840;47.508;19.376;2023-06-22T15:01:14;35.60;74.40
39095;DHT22;24840;47.508;19.376;2023-06-22T15:03:39;35.90;68.60
39095;DHT22;24840;47.508;19.376;2023-06-22T15:06:05;35.70;73.20
39095;DHT22;24840;47.508;19.376;2023-06-22T15:08:31;35.00;71.60
39095;DHT22;24840;47.508;19.376;2023-06-22T15:10:59;35.20;74.60
39095;DHT22;24840;47.508;19.376;2023-06-22T15:13:30;35.50;75.60
39095;DHT22;24840;47.508;19.376;2023-06-22T15:16:01;35.40;74.20